sensor_id;sensor_type;location;lat;lon;timestamp;P1;durP1;ratioP1;P2;durP2;ratioP2
19036;SDS011;9651;49.138;8.900;2023-12-28T00:03:39;28.00;;;13.53;;
19036;SDS011;9651;49.138;8.900;2023-12-28T00:07:41;28.40;;;12.90;;
19036;SDS011;9651;49.138;8.900;2023-12-28T00:11:43;25.60;;;12.73;;
19036;SDS011;9651;49.138;8.900;2023-12-28T00:15:45;22.67;;;11.93;;
19036;SDS011;9651;49.138;8.900;2023-12-28T00:19:48;20.53;;;10.93;;
19036;SDS011;9651;49.138;8.900;2023-12-28T00:23:50;17.27;;;10.63;;
19036;SDS011;9651;49.138;8.900;2023-12-28T00:27:51;16.80;;;10.03;;
19036;SDS011;9651;49.138;8.900;2023-12-28T00:31:54;12.50;;;7.40;;
19036;SDS011;9651;49.138;8.900;2023-12-28T00:35:58;12.17;;;8.23;;
19036;SDS011;9651;49.138;8.900;2023-12-28T00:40:00;14.00;;;8.10;;
19036;SDS011;9651;49.138;8.900;2023-12-28T00:44:03;10.73;;;7.20;;
19036;SDS011;9651;49.138;8.900;2023-12-28T00:48:06;11.07;;;7.67;;
19036;SDS011;9651;49.138;8.900;2023-12-28T00:52:10;14.93;;;8.57;;
19036;SDS011;9651;49.138;8.900;2023-12-28T00:56:11;14.23;;;7.30;;
19036;SDS011;9651;49.138;8.900;2023-12-28T01:00:14;15.97;;;7.87;;
19036;SDS011;9651;49.138;8.900;2023-12-28T01:04:16;13.10;;;7.83;;
19036;SDS011;9651;49.138;8.900;2023-12-28T01:08:20;13.37;;;7.63;;
19036;SDS011;9651;49.138;8.900;2023-12-28T01:12:23;14.67;;;7.47;;
19036;SDS011;9651;49.138;8.900;2023-12-28T01:16:25;11.97;;;7.70;;
19036;SDS011;9651;49.138;8.900;2023-12-28T01:20:28;12.37;;;7.53;;
19036;SDS011;9651;49.138;8.900;2023-12-28T01:24:31;15.10;;;8.43;;
19036;SDS011;9651;49.138;8.900;2023-12-28T01:28:33;12.67;;;8.57;;
19036;SDS011;9651;49.138;8.900;2023-12-28T01:32:34;13.00;;;7.63;;
19036;SDS011;9651;49.138;8.900;2023-12-28T01:36:36;12.07;;;7.90;;
19036;SDS011;9651;49.138;8.900;2023-12-28T01:40:45;12.40;;;7.37;;
19036;SDS011;9651;49.138;8.900;2023-12-28T01:44:47;11.13;;;7.23;;
19036;SDS011;9651;49.138;8.900;2023-12-28T01:48:49;12.53;;;7.13;;
19036;SDS011;9651;49.138;8.900;2023-12-28T01:52:52;12.53;;;7.50;;
19036;SDS011;9651;49.138;8.900;2023-12-28T01:56:58;15.17;;;7.73;;
19036;SDS011;9651;49.138;8.900;2023-12-28T02:01:02;15.03;;;7.00;;
19036;SDS011;9651;49.138;8.900;2023-12-28T02:05:05;12.00;;;6.97;;
19036;SDS011;9651;49.138;8.900;2023-12-28T02:09:07;11.03;;;6.67;;
19036;SDS011;9651;49.138;8.900;2023-12-28T02:13:10;13.53;;;7.30;;
19036;SDS011;9651;49.138;8.900;2023-12-28T02:17:13;10.13;;;6.67;;
19036;SDS011;9651;49.138;8.900;2023-12-28T02:21:30;13.40;;;7.67;;
19036;SDS011;9651;49.138;8.900;2023-12-28T02:25:35;14.73;;;7.67;;
19036;SDS011;9651;49.138;8.900;2023-12-28T02:29:37;9.90;;;6.60;;
19036;SDS011;9651;49.138;8.900;2023-12-28T02:33:42;9.93;;;6.57;;
19036;SDS011;9651;49.138;8.900;2023-12-28T02:38:00;13.17;;;7.33;;
19036;SDS011;9651;49.138;8.900;2023-12-28T02:42:08;16.33;;;7.70;;
19036;SDS011;9651;49.138;8.900;2023-12-28T02:46:15;8.20;;;5.20;;
19036;SDS011;9651;49.138;8.900;2023-12-28T02:50:17;4.83;;;2.97;;
19036;SDS011;9651;49.138;8.900;2023-12-28T02:54:19;2.67;;;2.00;;
19036;SDS011;9651;49.138;8.900;2023-12-28T02:58:22;1.93;;;1.53;;
19036;SDS011;9651;49.138;8.900;2023-12-28T03:02:24;3.27;;;1.77;;
19036;SDS011;9651;49.138;8.900;2023-12-28T03:06:26;2.03;;;1.70;;
19036;SDS011;9651;49.138;8.900;2023-12-28T03:10:28;3.07;;;1.87;;
19036;SDS011;9651;49.138;8.900;2023-12-28T03:14:31;3.07;;;1.90;;
19036;SDS011;9651;49.138;8.900;2023-12-28T03:18:33;3.37;;;1.80;;
19036;SDS011;9651;49.138;8.900;2023-12-28T03:22:35;3.00;;;1.70;;
19036;SDS011;9651;49.138;8.900;2023-12-28T03:26:37;2.30;;;1.47;;
19036;SDS011;9651;49.138;8.900;2023-12-28T03:30:41;1.53;;;1.00;;
19036;SDS011;9651;49.138;8.900;2023-12-28T03:34:43;2.50;;;1.40;;
19036;SDS011;9651;49.138;8.900;2023-12-28T03:38:44;2.63;;;1.87;;
19036;SDS011;9651;49.138;8.900;2023-12-28T03:42:46;2.40;;;1.50;;
19036;SDS011;9651;49.138;8.900;2023-12-28T03:46:50;3.43;;;1.67;;
19036;SDS011;9651;49.138;8.900;2023-12-28T03:50:52;2.03;;;1.40;;
19036;SDS011;9651;49.138;8.900;2023-12-28T03:54:54;2.23;;;1.50;;
19036;SDS011;9651;49.138;8.900;2023-12-28T03:58:56;2.27;;;1.50;;
19036;SDS011;9651;49.138;8.900;2023-12-28T04:02:59;1.23;;;1.10;;
19036;SDS011;9651;49.138;8.900;2023-12-28T04:07:01;1.63;;;1.30;;
19036;SDS011;9651;49.138;8.900;2023-12-28T04:11:07;3.20;;;1.67;;
19036;SDS011;9651;49.138;8.900;2023-12-28T04:15:09;3.60;;;1.43;;
19036;SDS011;9651;49.138;8.900;2023-12-28T04:19:12;1.60;;;1.20;;
19036;SDS011;9651;49.138;8.900;2023-12-28T04:23:14;1.90;;;1.53;;
19036;SDS011;9651;49.138;8.900;2023-12-28T04:27:16;3.03;;;1.63;;
19036;SDS011;9651;49.138;8.900;2023-12-28T04:31:18;4.13;;;1.60;;
19036;SDS011;9651;49.138;8.900;2023-12-28T04:35:22;4.90;;;1.40;;
19036;SDS011;9651;49.138;8.900;2023-12-28T04:39:23;2.33;;;1.40;;
19036;SDS011;9651;49.138;8.900;2023-12-28T04:43:26;2.33;;;1.53;;
19036;SDS011;9651;49.138;8.900;2023-12-28T04:47:28;1.50;;;1.30;;
19036;SDS011;9651;49.138;8.900;2023-12-28T04:51:31;2.37;;;1.33;;
19036;SDS011;9651;49.138;8.900;2023-12-28T04:55:33;2.33;;;1.23;;
19036;SDS011;9651;49.138;8.900;2023-12-28T04:59:37;3.63;;;2.50;;
19036;SDS011;9651;49.138;8.900;2023-12-28T05:03:39;2.37;;;1.40;;
19036;SDS011;9651;49.138;8.900;2023-12-28T05:07:43;4.57;;;1.83;;
19036;SDS011;9651;49.138;8.900;2023-12-28T05:11:45;2.40;;;1.70;;
19036;SDS011;9651;49.138;8.900;2023-12-28T05:15:46;2.47;;;1.47;;
19036;SDS011;9651;49.138;8.900;2023-12-28T05:19:48;5.63;;;1.60;;
19036;SDS011;9651;49.138;8.900;2023-12-28T05:23:51;2.23;;;1.40;;
19036;SDS011;9651;49.138;8.900;2023-12-28T05:27:54;3.67;;;1.60;;
19036;SDS011;9651;49.138;8.900;2023-12-28T05:31:56;2.67;;;1.60;;
19036;SDS011;9651;49.138;8.900;2023-12-28T05:35:58;2.10;;;1.40;;
19036;SDS011;9651;49.138;8.900;2023-12-28T05:40:02;3.77;;;1.50;;
19036;SDS011;9651;49.138;8.900;2023-12-28T05:44:04;1.50;;;1.20;;
19036;SDS011;9651;49.138;8.900;2023-12-28T05:48:06;2.93;;;1.77;;
19036;SDS011;9651;49.138;8.900;2023-12-28T05:52:08;2.67;;;1.47;;
19036;SDS011;9651;49.138;8.900;2023-12-28T05:56:11;2.57;;;1.40;;
19036;SDS011;9651;49.138;8.900;2023-12-28T06:00:13;3.17;;;1.70;;
19036;SDS011;9651;49.138;8.900;2023-12-28T06:04:16;4.10;;;2.23;;
19036;SDS011;9651;49.138;8.900;2023-12-28T06:08:18;2.73;;;1.60;;
19036;SDS011;9651;49.138;8.900;2023-12-28T06:12:21;3.07;;;1.70;;
19036;SDS011;9651;49.138;8.900;2023-12-28T06:16:23;3.13;;;1.60;;
19036;SDS011;9651;49.138;8.900;2023-12-28T06:20:25;2.93;;;1.73;;
19036;SDS011;9651;49.138;8.900;2023-12-28T06:24:27;5.03;;;1.93;;
19036;SDS011;9651;49.138;8.900;2023-12-28T06:28:30;2.70;;;1.80;;
19036;SDS011;9651;49.138;8.900;2023-12-28T06:32:32;4.47;;;2.10;;
19036;SDS011;9651;49.138;8.900;2023-12-28T06:36:34;1.43;;;1.30;;
19036;SDS011;9651;49.138;8.900;2023-12-28T06:40:36;4.30;;;2.40;;
19036;SDS011;9651;49.138;8.900;2023-12-28T06:44:39;3.10;;;2.00;;
19036;SDS011;9651;49.138;8.900;2023-12-28T06:48:41;2.90;;;1.90;;
19036;SDS011;9651;49.138;8.900;2023-12-28T06:52:43;2.43;;;1.70;;
19036;SDS011;9651;49.138;8.900;2023-12-28T06:56:46;4.50;;;1.90;;
19036;SDS011;9651;49.138;8.900;2023-12-28T07:00:50;2.57;;;1.53;;
19036;SDS011;9651;49.138;8.900;2023-12-28T07:04:52;3.73;;;2.13;;
19036;SDS011;9651;49.138;8.900;2023-12-28T07:08:54;2.43;;;1.67;;
19036;SDS011;9651;49.138;8.900;2023-12-28T07:12:59;3.47;;;1.93;;
19036;SDS011;9651;49.138;8.900;2023-12-28T07:17:02;3.07;;;1.90;;
19036;SDS011;9651;49.138;8.900;2023-12-28T07:21:04;2.70;;;1.83;;
19036;SDS011;9651;49.138;8.900;2023-12-28T07:25:09;3.50;;;1.80;;
19036;SDS011;9651;49.138;8.900;2023-12-28T07:29:11;5.60;;;1.90;;
19036;SDS011;9651;49.138;8.900;2023-12-28T07:33:14;4.83;;;2.43;;
19036;SDS011;9651;49.138;8.900;2023-12-28T07:37:16;3.00;;;2.20;;
19036;SDS011;9651;49.138;8.900;2023-12-28T07:41:18;5.23;;;2.37;;
19036;SDS011;9651;49.138;8.900;2023-12-28T07:45:20;2.40;;;2.07;;
19036;SDS011;9651;49.138;8.900;2023-12-28T07:49:24;2.70;;;2.07;;
19036;SDS011;9651;49.138;8.900;2023-12-28T07:53:26;5.50;;;2.60;;
19036;SDS011;9651;49.138;8.900;2023-12-28T07:57:38;4.77;;;2.03;;
19036;SDS011;9651;49.138;8.900;2023-12-28T08:01:41;2.93;;;2.27;;
19036;SDS011;9651;49.138;8.900;2023-12-28T08:05:44;4.10;;;2.50;;
19036;SDS011;9651;49.138;8.900;2023-12-28T08:09:46;3.83;;;2.30;;
19036;SDS011;9651;49.138;8.900;2023-12-28T08:13:48;5.13;;;2.40;;
19036;SDS011;9651;49.138;8.900;2023-12-28T08:17:50;2.90;;;1.80;;
19036;SDS011;9651;49.138;8.900;2023-12-28T08:21:53;4.23;;;2.03;;
19036;SDS011;9651;49.138;8.900;2023-12-28T08:25:55;3.93;;;2.73;;
19036;SDS011;9651;49.138;8.900;2023-12-28T08:29:56;5.40;;;2.47;;
19036;SDS011;9651;49.138;8.900;2023-12-28T08:33:58;6.63;;;3.10;;
19036;SDS011;9651;49.138;8.900;2023-12-28T08:38:01;3.70;;;2.60;;
19036;SDS011;9651;49.138;8.900;2023-12-28T08:42:06;5.93;;;3.60;;
19036;SDS011;9651;49.138;8.900;2023-12-28T08:46:08;5.37;;;3.90;;
19036;SDS011;9651;49.138;8.900;2023-12-28T08:50:10;6.00;;;3.40;;
19036;SDS011;9651;49.138;8.900;2023-12-28T08:54:13;6.17;;;3.20;;
19036;SDS011;9651;49.138;8.900;2023-12-28T08:58:15;8.23;;;3.63;;
19036;SDS011;9651;49.138;8.900;2023-12-28T09:02:17;5.63;;;3.17;;
19036;SDS011;9651;49.138;8.900;2023-12-28T09:06:19;4.83;;;2.87;;
19036;SDS011;9651;49.138;8.900;2023-12-28T09:10:23;9.00;;;3.83;;
19036;SDS011;9651;49.138;8.900;2023-12-28T09:14:24;6.23;;;3.00;;
19036;SDS011;9651;49.138;8.900;2023-12-28T09:18:26;5.93;;;3.43;;
19036;SDS011;9651;49.138;8.900;2023-12-28T09:22:28;11.50;;;4.97;;
19036;SDS011;9651;49.138;8.900;2023-12-28T09:26:31;22.13;;;8.43;;
19036;SDS011;9651;49.138;8.900;2023-12-28T09:30:33;10.80;;;4.87;;
19036;SDS011;9651;49.138;8.900;2023-12-28T09:34:35;5.67;;;3.10;;
19036;SDS011;9651;49.138;8.900;2023-12-28T09:38:37;3.73;;;2.57;;
19036;SDS011;9651;49.138;8.900;2023-12-28T09:42:43;4.53;;;3.03;;
19036;SDS011;9651;49.138;8.900;2023-12-28T09:46:52;4.87;;;3.00;;
19036;SDS011;9651;49.138;8.900;2023-12-28T09:50:56;3.47;;;3.17;;
19036;SDS011;9651;49.138;8.900;2023-12-28T09:54:58;4.30;;;3.10;;
19036;SDS011;9651;49.138;8.900;2023-12-28T09:59:01;5.23;;;3.20;;
19036;SDS011;9651;49.138;8.900;2023-12-28T10:03:05;8.00;;;6.33;;
19036;SDS011;9651;49.138;8.900;2023-12-28T10:07:07;9.63;;;6.10;;
19036;SDS011;9651;49.138;8.900;2023-12-28T10:11:10;7.43;;;4.30;;
19036;SDS011;9651;49.138;8.900;2023-12-28T10:15:13;3.23;;;2.87;;
19036;SDS011;9651;49.138;8.900;2023-12-28T10:19:15;3.50;;;2.80;;
19036;SDS011;9651;49.138;8.900;2023-12-28T10:23:22;4.83;;;2.40;;
19036;SDS011;9651;49.138;8.900;2023-12-28T10:27:25;6.33;;;3.97;;
19036;SDS011;9651;49.138;8.900;2023-12-28T10:31:29;5.10;;;3.50;;
19036;SDS011;9651;49.138;8.900;2023-12-28T10:35:31;3.60;;;2.53;;
19036;SDS011;9651;49.138;8.900;2023-12-28T10:39:34;5.10;;;3.00;;
19036;SDS011;9651;49.138;8.900;2023-12-28T10:43:45;5.17;;;3.07;;
19036;SDS011;9651;49.138;8.900;2023-12-28T10:47:51;6.37;;;3.20;;
19036;SDS011;9651;49.138;8.900;2023-12-28T10:52:03;4.73;;;2.60;;
19036;SDS011;9651;49.138;8.900;2023-12-28T10:56:14;4.77;;;2.63;;
19036;SDS011;9651;49.138;8.900;2023-12-28T11:00:22;6.83;;;3.43;;
19036;SDS011;9651;49.138;8.900;2023-12-28T11:04:30;3.97;;;2.80;;
19036;SDS011;9651;49.138;8.900;2023-12-28T11:08:38;4.50;;;2.80;;
19036;SDS011;9651;49.138;8.900;2023-12-28T11:12:43;5.07;;;2.43;;
19036;SDS011;9651;49.138;8.900;2023-12-28T11:16:45;2.80;;;2.27;;
19036;SDS011;9651;49.138;8.900;2023-12-28T11:20:49;5.03;;;2.20;;
19036;SDS011;9651;49.138;8.900;2023-12-28T11:24:52;3.30;;;2.30;;
19036;SDS011;9651;49.138;8.900;2023-12-28T11:28:59;5.33;;;2.87;;
19036;SDS011;9651;49.138;8.900;2023-12-28T11:33:02;4.23;;;2.23;;
19036;SDS011;9651;49.138;8.900;2023-12-28T11:37:07;5.00;;;2.77;;
19036;SDS011;9651;49.138;8.900;2023-12-28T11:41:16;3.93;;;2.63;;
19036;SDS011;9651;49.138;8.900;2023-12-28T11:45:19;6.10;;;3.13;;
19036;SDS011;9651;49.138;8.900;2023-12-28T11:49:24;3.23;;;2.13;;
19036;SDS011;9651;49.138;8.900;2023-12-28T11:53:28;2.77;;;2.20;;
19036;SDS011;9651;49.138;8.900;2023-12-28T11:57:31;6.13;;;2.70;;
19036;SDS011;9651;49.138;8.900;2023-12-28T12:01:33;4.13;;;2.50;;
19036;SDS011;9651;49.138;8.900;2023-12-28T12:05:34;3.77;;;2.73;;
19036;SDS011;9651;49.138;8.900;2023-12-28T12:09:38;4.23;;;2.87;;
19036;SDS011;9651;49.138;8.900;2023-12-28T12:13:40;4.23;;;1.90;;
19036;SDS011;9651;49.138;8.900;2023-12-28T12:17:42;5.47;;;2.00;;
19036;SDS011;9651;49.138;8.900;2023-12-28T12:21:45;1.90;;;1.53;;
19036;SDS011;9651;49.138;8.900;2023-12-28T12:25:50;2.20;;;1.70;;
19036;SDS011;9651;49.138;8.900;2023-12-28T12:29:53;2.43;;;1.97;;
19036;SDS011;9651;49.138;8.900;2023-12-28T12:33:55;2.10;;;1.80;;
19036;SDS011;9651;49.138;8.900;2023-12-28T12:37:56;4.13;;;2.23;;
19036;SDS011;9651;49.138;8.900;2023-12-28T12:42:00;2.80;;;1.93;;
19036;SDS011;9651;49.138;8.900;2023-12-28T12:46:03;4.77;;;2.03;;
19036;SDS011;9651;49.138;8.900;2023-12-28T12:50:05;5.10;;;2.37;;
19036;SDS011;9651;49.138;8.900;2023-12-28T12:54:07;4.77;;;2.17;;
19036;SDS011;9651;49.138;8.900;2023-12-28T12:58:11;3.07;;;2.40;;
19036;SDS011;9651;49.138;8.900;2023-12-28T13:02:13;4.13;;;2.13;;
19036;SDS011;9651;49.138;8.900;2023-12-28T13:06:17;1.93;;;1.70;;
19036;SDS011;9651;49.138;8.900;2023-12-28T13:10:22;2.50;;;1.77;;
19036;SDS011;9651;49.138;8.900;2023-12-28T13:14:26;3.97;;;1.83;;
19036;SDS011;9651;49.138;8.900;2023-12-28T13:18:29;3.47;;;1.97;;
19036;SDS011;9651;49.138;8.900;2023-12-28T13:22:32;2.27;;;1.93;;
19036;SDS011;9651;49.138;8.900;2023-12-28T13:26:34;3.47;;;2.10;;
19036;SDS011;9651;49.138;8.900;2023-12-28T13:30:37;2.53;;;1.90;;
19036;SDS011;9651;49.138;8.900;2023-12-28T13:34:39;2.20;;;1.90;;
19036;SDS011;9651;49.138;8.900;2023-12-28T13:38:41;4.33;;;2.53;;
19036;SDS011;9651;49.138;8.900;2023-12-28T13:42:43;4.73;;;3.13;;
19036;SDS011;9651;49.138;8.900;2023-12-28T13:46:46;4.37;;;2.70;;
19036;SDS011;9651;49.138;8.900;2023-12-28T13:50:49;4.80;;;2.77;;
19036;SDS011;9651;49.138;8.900;2023-12-28T13:54:51;3.63;;;2.90;;
19036;SDS011;9651;49.138;8.900;2023-12-28T13:58:53;3.00;;;2.40;;
19036;SDS011;9651;49.138;8.900;2023-12-28T14:02:56;3.23;;;2.67;;
19036;SDS011;9651;49.138;8.900;2023-12-28T14:06:59;4.10;;;2.80;;
19036;SDS011;9651;49.138;8.900;2023-12-28T14:11:01;3.33;;;2.63;;
19036;SDS011;9651;49.138;8.900;2023-12-28T14:15:03;3.30;;;2.37;;
19036;SDS011;9651;49.138;8.900;2023-12-28T14:19:07;3.77;;;2.93;;
19036;SDS011;9651;49.138;8.900;2023-12-28T14:23:09;2.10;;;1.90;;
19036;SDS011;9651;49.138;8.900;2023-12-28T14:27:12;3.10;;;2.47;;
19036;SDS011;9651;49.138;8.900;2023-12-28T14:31:15;7.77;;;4.10;;
19036;SDS011;9651;49.138;8.900;2023-12-28T14:35:19;5.77;;;4.70;;
19036;SDS011;9651;49.138;8.900;2023-12-28T14:39:22;6.50;;;3.00;;
19036;SDS011;9651;49.138;8.900;2023-12-28T14:43:24;4.03;;;2.87;;
19036;SDS011;9651;49.138;8.900;2023-12-28T14:47:26;3.93;;;2.17;;
19036;SDS011;9651;49.138;8.900;2023-12-28T14:51:29;4.33;;;3.87;;
19036;SDS011;9651;49.138;8.900;2023-12-28T14:55:31;4.23;;;3.30;;
19036;SDS011;9651;49.138;8.900;2023-12-28T14:59:39;5.23;;;2.87;;
19036;SDS011;9651;49.138;8.900;2023-12-28T15:03:41;3.33;;;2.70;;
19036;SDS011;9651;49.138;8.900;2023-12-28T15:07:45;4.07;;;3.20;;
19036;SDS011;9651;49.138;8.900;2023-12-28T15:11:48;4.10;;;3.07;;
19036;SDS011;9651;49.138;8.900;2023-12-28T15:15:51;2.93;;;2.60;;
19036;SDS011;9651;49.138;8.900;2023-12-28T15:19:53;5.43;;;2.67;;
19036;SDS011;9651;49.138;8.900;2023-12-28T15:23:57;3.43;;;2.40;;
19036;SDS011;9651;49.138;8.900;2023-12-28T15:28:01;3.90;;;2.60;;
19036;SDS011;9651;49.138;8.900;2023-12-28T15:32:03;5.33;;;3.47;;
19036;SDS011;9651;49.138;8.900;2023-12-28T15:36:05;5.30;;;4.07;;
19036;SDS011;9651;49.138;8.900;2023-12-28T15:40:09;4.97;;;3.53;;
19036;SDS011;9651;49.138;8.900;2023-12-28T15:44:11;5.37;;;3.60;;
19036;SDS011;9651;49.138;8.900;2023-12-28T15:48:14;5.57;;;4.23;;
19036;SDS011;9651;49.138;8.900;2023-12-28T15:52:16;6.03;;;3.77;;
19036;SDS011;9651;49.138;8.900;2023-12-28T15:56:19;3.73;;;2.50;;
19036;SDS011;9651;49.138;8.900;2023-12-28T16:00:21;3.43;;;2.70;;
19036;SDS011;9651;49.138;8.900;2023-12-28T16:04:23;4.47;;;2.60;;
19036;SDS011;9651;49.138;8.900;2023-12-28T16:08:25;3.73;;;2.80;;
19036;SDS011;9651;49.138;8.900;2023-12-28T16:12:28;3.47;;;2.73;;
19036;SDS011;9651;49.138;8.900;2023-12-28T16:16:31;4.50;;;3.33;;
19036;SDS011;9651;49.138;8.900;2023-12-28T16:20:33;6.83;;;4.77;;
19036;SDS011;9651;49.138;8.900;2023-12-28T16:24:36;7.93;;;5.33;;
19036;SDS011;9651;49.138;8.900;2023-12-28T16:28:39;13.87;;;5.20;;
19036;SDS011;9651;49.138;8.900;2023-12-28T16:32:41;9.43;;;4.03;;
19036;SDS011;9651;49.138;8.900;2023-12-28T16:36:44;4.27;;;3.20;;
19036;SDS011;9651;49.138;8.900;2023-12-28T16:40:46;4.03;;;3.20;;
19036;SDS011;9651;49.138;8.900;2023-12-28T16:44:49;4.70;;;3.73;;
19036;SDS011;9651;49.138;8.900;2023-12-28T16:48:51;7.00;;;4.83;;
19036;SDS011;9651;49.138;8.900;2023-12-28T16:52:53;7.77;;;4.30;;
19036;SDS011;9651;49.138;8.900;2023-12-28T16:56:56;6.57;;;4.43;;
19036;SDS011;9651;49.138;8.900;2023-12-28T17:00:59;5.83;;;3.97;;
19036;SDS011;9651;49.138;8.900;2023-12-28T17:05:01;4.33;;;3.43;;
19036;SDS011;9651;49.138;8.900;2023-12-28T17:09:04;4.73;;;3.60;;
19036;SDS011;9651;49.138;8.900;2023-12-28T17:13:10;9.47;;;4.87;;
19036;SDS011;9651;49.138;8.900;2023-12-28T17:17:14;7.60;;;4.83;;
19036;SDS011;9651;49.138;8.900;2023-12-28T17:21:17;6.47;;;4.67;;
19036;SDS011;9651;49.138;8.900;2023-12-28T17:25:28;6.17;;;3.20;;
19036;SDS011;9651;49.138;8.900;2023-12-28T17:29:34;4.77;;;3.13;;
19036;SDS011;9651;49.138;8.900;2023-12-28T17:33:41;3.90;;;3.17;;
19036;SDS011;9651;49.138;8.900;2023-12-28T17:37:43;5.53;;;3.80;;
19036;SDS011;9651;49.138;8.900;2023-12-28T17:41:51;5.10;;;3.60;;
19036;SDS011;9651;49.138;8.900;2023-12-28T17:45:56;7.93;;;3.90;;
19036;SDS011;9651;49.138;8.900;2023-12-28T17:50:06;5.80;;;4.90;;
19036;SDS011;9651;49.138;8.900;2023-12-28T17:54:12;6.80;;;4.10;;
19036;SDS011;9651;49.138;8.900;2023-12-28T17:58:14;6.93;;;4.80;;
19036;SDS011;9651;49.138;8.900;2023-12-28T18:02:19;6.23;;;4.90;;
19036;SDS011;9651;49.138;8.900;2023-12-28T18:06:22;7.83;;;4.23;;
19036;SDS011;9651;49.138;8.900;2023-12-28T18:10:26;5.43;;;4.00;;
19036;SDS011;9651;49.138;8.900;2023-12-28T18:14:28;7.87;;;4.00;;
19036;SDS011;9651;49.138;8.900;2023-12-28T18:18:30;8.27;;;4.70;;
19036;SDS011;9651;49.138;8.900;2023-12-28T18:22:33;6.53;;;4.10;;
19036;SDS011;9651;49.138;8.900;2023-12-28T18:26:35;5.37;;;3.90;;
19036;SDS011;9651;49.138;8.900;2023-12-28T18:30:37;7.27;;;4.90;;
19036;SDS011;9651;49.138;8.900;2023-12-28T18:34:42;7.30;;;4.93;;
19036;SDS011;9651;49.138;8.900;2023-12-28T18:38:46;8.97;;;5.07;;
19036;SDS011;9651;49.138;8.900;2023-12-28T18:42:51;9.73;;;5.77;;
19036;SDS011;9651;49.138;8.900;2023-12-28T18:46:53;8.80;;;5.23;;
19036;SDS011;9651;49.138;8.900;2023-12-28T18:50:55;8.17;;;5.03;;
19036;SDS011;9651;49.138;8.900;2023-12-28T18:54:58;8.00;;;5.00;;
19036;SDS011;9651;49.138;8.900;2023-12-28T18:59:00;5.90;;;4.27;;
19036;SDS011;9651;49.138;8.900;2023-12-28T19:03:03;8.73;;;4.63;;
19036;SDS011;9651;49.138;8.900;2023-12-28T19:07:05;6.60;;;4.83;;
19036;SDS011;9651;49.138;8.900;2023-12-28T19:11:11;8.27;;;5.20;;
19036;SDS011;9651;49.138;8.900;2023-12-28T19:15:13;9.80;;;4.40;;
19036;SDS011;9651;49.138;8.900;2023-12-28T19:19:15;7.67;;;4.73;;
19036;SDS011;9651;49.138;8.900;2023-12-28T19:23:17;6.43;;;4.70;;
19036;SDS011;9651;49.138;8.900;2023-12-28T19:27:20;8.97;;;4.37;;
19036;SDS011;9651;49.138;8.900;2023-12-28T19:31:22;6.80;;;4.27;;
19036;SDS011;9651;49.138;8.900;2023-12-28T19:35:24;5.07;;;4.10;;
19036;SDS011;9651;49.138;8.900;2023-12-28T19:39:26;4.53;;;3.63;;
19036;SDS011;9651;49.138;8.900;2023-12-28T19:43:30;3.43;;;3.00;;
19036;SDS011;9651;49.138;8.900;2023-12-28T19:47:32;6.47;;;3.27;;
19036;SDS011;9651;49.138;8.900;2023-12-28T19:51:34;4.30;;;2.90;;
19036;SDS011;9651;49.138;8.900;2023-12-28T19:55:36;4.73;;;3.00;;
19036;SDS011;9651;49.138;8.900;2023-12-28T19:59:39;3.20;;;2.77;;
19036;SDS011;9651;49.138;8.900;2023-12-28T20:03:41;2.60;;;2.23;;
19036;SDS011;9651;49.138;8.900;2023-12-28T20:07:43;3.37;;;2.10;;
19036;SDS011;9651;49.138;8.900;2023-12-28T20:11:45;3.27;;;2.17;;
19036;SDS011;9651;49.138;8.900;2023-12-28T20:15:49;2.53;;;1.73;;
19036;SDS011;9651;49.138;8.900;2023-12-28T20:19:52;4.53;;;2.10;;
19036;SDS011;9651;49.138;8.900;2023-12-28T20:23:55;2.50;;;2.20;;
19036;SDS011;9651;49.138;8.900;2023-12-28T20:27:57;2.13;;;1.80;;
19036;SDS011;9651;49.138;8.900;2023-12-28T20:32:02;2.83;;;2.10;;
19036;SDS011;9651;49.138;8.900;2023-12-28T20:36:05;3.57;;;1.97;;
19036;SDS011;9651;49.138;8.900;2023-12-28T20:40:07;5.50;;;2.10;;
19036;SDS011;9651;49.138;8.900;2023-12-28T20:44:15;2.33;;;1.90;;
19036;SDS011;9651;49.138;8.900;2023-12-28T20:48:18;3.13;;;2.40;;
19036;SDS011;9651;49.138;8.900;2023-12-28T20:52:20;3.80;;;2.37;;
19036;SDS011;9651;49.138;8.900;2023-12-28T20:56:22;6.07;;;3.37;;
19036;SDS011;9651;49.138;8.900;2023-12-28T21:00:24;3.30;;;2.67;;
19036;SDS011;9651;49.138;8.900;2023-12-28T21:04:29;3.30;;;2.37;;
19036;SDS011;9651;49.138;8.900;2023-12-28T21:08:32;4.20;;;2.80;;
19036;SDS011;9651;49.138;8.900;2023-12-28T21:12:34;4.47;;;2.50;;
19036;SDS011;9651;49.138;8.900;2023-12-28T21:16:37;3.10;;;2.13;;
19036;SDS011;9651;49.138;8.900;2023-12-28T21:20:40;3.87;;;2.60;;
19036;SDS011;9651;49.138;8.900;2023-12-28T21:24:42;3.30;;;2.60;;
19036;SDS011;9651;49.138;8.900;2023-12-28T21:28:44;4.00;;;2.80;;
19036;SDS011;9651;49.138;8.900;2023-12-28T21:32:46;3.53;;;2.57;;
19036;SDS011;9651;49.138;8.900;2023-12-28T21:36:49;2.80;;;2.00;;
19036;SDS011;9651;49.138;8.900;2023-12-28T21:40:52;2.70;;;2.50;;
19036;SDS011;9651;49.138;8.900;2023-12-28T21:44:54;3.70;;;2.73;;
19036;SDS011;9651;49.138;8.900;2023-12-28T21:48:56;2.60;;;2.10;;
19036;SDS011;9651;49.138;8.900;2023-12-28T21:52:59;3.37;;;1.97;;
19036;SDS011;9651;49.138;8.900;2023-12-28T21:57:01;2.40;;;1.90;;
19036;SDS011;9651;49.138;8.900;2023-12-28T22:01:04;2.03;;;1.80;;
19036;SDS011;9651;49.138;8.900;2023-12-28T22:05:06;3.87;;;1.90;;
19036;SDS011;9651;49.138;8.900;2023-12-28T22:09:10;2.10;;;1.67;;
19036;SDS011;9651;49.138;8.900;2023-12-28T22:13:12;2.17;;;1.80;;
19036;SDS011;9651;49.138;8.900;2023-12-28T22:17:14;2.37;;;2.00;;
19036;SDS011;9651;49.138;8.900;2023-12-28T22:21:15;3.10;;;1.93;;
19036;SDS011;9651;49.138;8.900;2023-12-28T22:25:19;2.20;;;2.00;;
19036;SDS011;9651;49.138;8.900;2023-12-28T22:29:21;2.30;;;1.70;;
19036;SDS011;9651;49.138;8.900;2023-12-28T22:33:23;3.10;;;1.37;;
19036;SDS011;9651;49.138;8.900;2023-12-28T22:37:25;2.63;;;1.50;;
19036;SDS011;9651;49.138;8.900;2023-12-28T22:41:29;3.67;;;1.83;;
19036;SDS011;9651;49.138;8.900;2023-12-28T22:45:31;2.07;;;1.47;;
19036;SDS011;9651;49.138;8.900;2023-12-28T22:49:33;3.83;;;1.70;;
19036;SDS011;9651;49.138;8.900;2023-12-28T22:53:34;2.13;;;1.70;;
19036;SDS011;9651;49.138;8.900;2023-12-28T22:57:38;2.37;;;1.93;;
19036;SDS011;9651;49.138;8.900;2023-12-28T23:01:40;4.33;;;1.93;;
19036;SDS011;9651;49.138;8.900;2023-12-28T23:05:42;3.13;;;2.40;;
19036;SDS011;9651;49.138;8.900;2023-12-28T23:09:44;2.77;;;1.90;;
19036;SDS011;9651;49.138;8.900;2023-12-28T23:13:47;2.30;;;1.87;;
19036;SDS011;9651;49.138;8.900;2023-12-28T23:17:49;2.20;;;1.70;;
19036;SDS011;9651;49.138;8.900;2023-12-28T23:21:51;3.60;;;2.40;;
19036;SDS011;9651;49.138;8.900;2023-12-28T23:25:53;2.37;;;1.60;;
19036;SDS011;9651;49.138;8.900;2023-12-28T23:29:56;2.83;;;2.03;;
19036;SDS011;9651;49.138;8.900;2023-12-28T23:33:58;4.57;;;2.00;;
19036;SDS011;9651;49.138;8.900;2023-12-28T23:38:00;3.07;;;2.20;;
19036;SDS011;9651;49.138;8.900;2023-12-28T23:42:03;3.60;;;2.30;;
19036;SDS011;9651;49.138;8.900;2023-12-28T23:46:07;3.50;;;2.10;;
19036;SDS011;9651;49.138;8.900;2023-12-28T23:50:08;4.30;;;2.43;;
19036;SDS011;9651;49.138;8.900;2023-12-28T23:54:10;3.23;;;2.53;;
19036;SDS011;9651;49.138;8.900;2023-12-28T23:58:12;5.50;;;2.63;;
